หน้าหลัก
METAR-TAF:

METAR-TAF

ท่าอากาศยาน :

Guaymas, เม็กซิโก

ละติจูด: 27-58N, ลองจิจูด: 110-56W, ความสูง: 27 ม.

การสังเกตสภาพอากาศปัจจุบัน

รายงานได้ทำขึ้นเมื่อ 46 นาทีที่แล้ว ณ เวลา 15:40 UTC
ลม 7 นอตจากตะวันออก/ตะวันออกเฉียงใต้
อุณหภูมิ 30°C
ความชื้น 79%
ความกดอากาศ 1005 hPa
ทัศนวิสัย: 16.1 กม.
มีเมฆเป็นส่วนมากเว้นเป็นระยะที่ความสูง 1600 ฟุต

METAR: MMGM 181540Z 12007KT 10SM BKN016 30/26 A2967 RMK 8/200

เวลา: 09:26 (16:26 UTC)

การพยากรณ์

รายงานได้ทำขึ้นเมื่อ 12 ชั่วโมงและ 5 นาทีที่แล้ว ณ เวลา 04:21 UTC
การพยากรณ์มีผลตั้งแต่วันที่ 18 ณ เวลา 06 UTC จนถึงวันที่ 19 ณ เวลา 06 UTC
ลม 5 นอตจากตะวันตกเฉียงใต้
ทัศนวิสัย: 10 กม.
ท้องฟ้าแจ่มใส
จาก 18 ณ เวลา 1600 UTC
ลม 10 นอตจากใต้
ทัศนวิสัย: 10 กม.
ท้องฟ้าแจ่มใส
จาก 18 ณ เวลา 2000 UTC
ลม 15 นอตจากตะวันตกเฉียงใต้
ทัศนวิสัย: 10 กม.
ท้องฟ้าแจ่มใส
จาก 19 ณ เวลา 0200 UTC
ลม 5 นอตจากตะวันตกเฉียงใต้
ทัศนวิสัย: 10 กม.
ท้องฟ้าแจ่มใส

TAF: MMGM 180421Z 1806/1906 22005KT P6SM SKC FM181600 18010KT P6SM SKC FM182000 22015KT P6SM SKC FM190200 22005KT P6SM SKC

สังเกตการณ์สภาพอากาศและพยากรณ์อากาศของสนามบินมากกว่า 4000 แห่ง (รายงาน METAR และ TAF).

สถานีที่ดูได้จะแสดงไว้ด้วยจุดสีเหลืองและสีแดงบนแผนที่.

เลื่อนเมาส์ไปเหนือจุดเพื่อดูชื่อสถานี.

แล้วคลิกเพื่อดูสังเกตการณ์และการพยากรณ์สภาพอากาศ.

ในการเปลี่ยนแผนที่: คลิกที่ปุ่มสีเขียวที่มีกากบาทสีดำเพื่อซูมเข้า; ที่ปุ่มสีเขียวที่มีขีดเพื่อซูมออก; หรือที่ลูกศรสีเขียวเพื่อไปยังแผนที่ที่อยู่ติดกัน.


METAR-TAF: